sensor_id;sensor_type;location;lat;lon;timestamp;temperature;humidity
49765;DHT22;35657;51.204;-4.130;2023-03-01T00:02:04;7.70;99.90
49765;DHT22;35657;51.204;-4.130;2023-03-01T00:04:30;7.70;99.90
49765;DHT22;35657;51.204;-4.130;2023-03-01T00:06:56;7.70;99.90
49765;DHT22;35657;51.204;-4.130;2023-03-01T00:09:22;7.70;99.90
49765;DHT22;35657;51.204;-4.130;2023-03-01T00:11:47;7.70;99.90
49765;DHT22;35657;51.204;-4.130;2023-03-01T00:14:13;7.70;99.90
49765;DHT22;35657;51.204;-4.130;2023-03-01T00:16:42;7.70;99.90
49765;DHT22;35657;51.204;-4.130;2023-03-01T00:19:17;7.70;99.90
49765;DHT22;35657;51.204;-4.130;2023-03-01T00:21:43;7.70;99.90
49765;DHT22;35657;51.204;-4.130;2023-03-01T00:24:11;7.70;99.90
49765;DHT22;35657;51.204;-4.130;2023-03-01T00:26:37;7.70;99.90
49765;DHT22;35657;51.204;-4.130;2023-03-01T00:29:03;7.70;99.90
49765;DHT22;35657;51.204;-4.130;2023-03-01T00:31:31;7.60;99.90
49765;DHT22;35657;51.204;-4.130;2023-03-01T00:34:02;7.60;99.90
49765;DHT22;35657;51.204;-4.130;2023-03-01T00:36:31;7.60;99.90
49765;DHT22;35657;51.204;-4.130;2023-03-01T00:38:57;7.60;99.90
49765;DHT22;35657;51.204;-4.130;2023-03-01T00:41:23;7.60;99.90
49765;DHT22;35657;51.204;-4.130;2023-03-01T00:43:49;7.60;99.90
49765;DHT22;35657;51.204;-4.130;2023-03-01T00:46:17;7.60;99.90
49765;DHT22;35657;51.204;-4.130;2023-03-01T00:48:43;7.60;99.90
49765;DHT22;35657;51.204;-4.130;2023-03-01T00:51:16;7.60;99.90
49765;DHT22;35657;51.204;-4.130;2023-03-01T00:53:42;7.60;99.90
49765;DHT22;35657;51.204;-4.130;2023-03-01T00:56:10;7.60;99.90
49765;DHT22;35657;51.204;-4.130;2023-03-01T00:58:36;7.50;99.90
49765;DHT22;35657;51.204;-4.130;2023-03-01T01:01:12;7.50;99.90
49765;DHT22;35657;51.204;-4.130;2023-03-01T01:03:47;7.50;99.90
49765;DHT22;35657;51.204;-4.130;2023-03-01T01:06:19;7.50;99.90
49765;DHT22;35657;51.204;-4.130;2023-03-01T01:08:45;7.50;99.90
49765;DHT22;35657;51.204;-4.130;2023-03-01T01:11:12;7.50;99.90
49765;DHT22;35657;51.204;-4.130;2023-03-01T01:13:39;7.50;99.90
49765;DHT22;35657;51.204;-4.130;2023-03-01T01:16:05;7.50;99.90
49765;DHT22;35657;51.204;-4.130;2023-03-01T01:18:31;7.50;99.90
49765;DHT22;35657;51.204;-4.130;2023-03-01T01:20:57;7.50;99.90
49765;DHT22;35657;51.204;-4.130;2023-03-01T01:23:23;7.50;99.90
49765;DHT22;35657;51.204;-4.130;2023-03-01T01:25:49;7.50;99.90
49765;DHT22;35657;51.204;-4.130;2023-03-01T01:28:14;7.50;99.90
49765;DHT22;35657;51.204;-4.130;2023-03-01T01:30:40;7.50;99.90
49765;DHT22;35657;51.204;-4.130;2023-03-01T01:33:06;7.50;99.90
49765;DHT22;35657;51.204;-4.130;2023-03-01T01:35:31;7.50;99.90
49765;DHT22;35657;51.204;-4.130;2023-03-01T01:37:57;7.50;99.90
49765;DHT22;35657;51.204;-4.130;2023-03-01T01:40:23;7.50;99.90
49765;DHT22;35657;51.204;-4.130;2023-03-01T01:42:48;7.50;99.90
49765;DHT22;35657;51.204;-4.130;2023-03-01T01:45:32;7.50;99.90
49765;DHT22;35657;51.204;-4.130;2023-03-01T01:48:00;7.50;99.90
49765;DHT22;35657;51.204;-4.130;2023-03-01T01:50:27;7.50;99.90
49765;DHT22;35657;51.204;-4.130;2023-03-01T01:53:05;7.40;99.90
49765;DHT22;35657;51.204;-4.130;2023-03-01T01:55:31;7.40;99.90
49765;DHT22;35657;51.204;-4.130;2023-03-01T01:58:02;7.40;99.90
49765;DHT22;35657;51.204;-4.130;2023-03-01T02:00:29;7.40;99.90
49765;DHT22;35657;51.204;-4.130;2023-03-01T02:03:16;7.30;99.90
49765;DHT22;35657;51.204;-4.130;2023-03-01T02:05:51;7.40;99.90
49765;DHT22;35657;51.204;-4.130;2023-03-01T02:08:20;7.30;99.90
49765;DHT22;35657;51.204;-4.130;2023-03-01T02:10:46;7.30;99.90
49765;DHT22;35657;51.204;-4.130;2023-03-01T02:13:13;7.30;99.90
49765;DHT22;35657;51.204;-4.130;2023-03-01T02:15:40;7.20;99.90
49765;DHT22;35657;51.204;-4.130;2023-03-01T02:18:08;7.20;99.90
49765;DHT22;35657;51.204;-4.130;2023-03-01T02:23:36;7.20;99.90
49765;DHT22;35657;51.204;-4.130;2023-03-01T02:28:40;7.20;99.90
49765;DHT22;35657;51.204;-4.130;2023-03-01T02:31:08;7.10;99.90
49765;DHT22;35657;51.204;-4.130;2023-03-01T02:33:53;7.10;99.90
49765;DHT22;35657;51.204;-4.130;2023-03-01T02:36:23;7.10;99.90
49765;DHT22;35657;51.204;-4.130;2023-03-01T02:38:52;7.10;99.90
49765;DHT22;35657;51.204;-4.130;2023-03-01T02:41:20;7.10;99.90
49765;DHT22;35657;51.204;-4.130;2023-03-01T02:43:46;7.10;99.90
49765;DHT22;35657;51.204;-4.130;2023-03-01T02:46:21;7.10;99.90
49765;DHT22;35657;51.204;-4.130;2023-03-01T02:48:55;7.10;99.90
49765;DHT22;35657;51.204;-4.130;2023-03-01T02:51:31;7.00;99.90
49765;DHT22;35657;51.204;-4.130;2023-03-01T02:56:39;7.00;99.90
49765;DHT22;35657;51.204;-4.130;2023-03-01T02:59:06;6.90;99.90
49765;DHT22;35657;51.204;-4.130;2023-03-01T03:01:32;6.90;99.90
49765;DHT22;35657;51.204;-4.130;2023-03-01T03:04:06;6.90;99.90
49765;DHT22;35657;51.204;-4.130;2023-03-01T03:06:32;7.00;99.90
49765;DHT22;35657;51.204;-4.130;2023-03-01T03:08:58;7.00;99.90
49765;DHT22;35657;51.204;-4.130;2023-03-01T03:11:24;7.00;99.90
49765;DHT22;35657;51.204;-4.130;2023-03-01T03:13:50;6.90;99.90
49765;DHT22;35657;51.204;-4.130;2023-03-01T03:16:18;6.90;99.90
49765;DHT22;35657;51.204;-4.130;2023-03-01T03:18:44;6.90;99.90
49765;DHT22;35657;51.204;-4.130;2023-03-01T03:21:12;6.90;99.90
49765;DHT22;35657;51.204;-4.130;2023-03-01T03:23:38;6.90;99.90
49765;DHT22;35657;51.204;-4.130;2023-03-01T03:26:05;6.90;99.90
49765;DHT22;35657;51.204;-4.130;2023-03-01T03:28:32;6.90;99.90
49765;DHT22;35657;51.204;-4.130;2023-03-01T03:30:58;6.90;99.90
49765;DHT22;35657;51.204;-4.130;2023-03-01T03:33:29;6.90;99.90
49765;DHT22;35657;51.204;-4.130;2023-03-01T03:35:55;6.90;99.90
49765;DHT22;35657;51.204;-4.130;2023-03-01T03:38:20;6.90;99.90
49765;DHT22;35657;51.204;-4.130;2023-03-01T03:41:09;6.90;99.90
49765;DHT22;35657;51.204;-4.130;2023-03-01T03:43:37;6.80;99.90
49765;DHT22;35657;51.204;-4.130;2023-03-01T03:46:03;6.80;99.90
49765;DHT22;35657;51.204;-4.130;2023-03-01T03:48:35;6.80;99.90
49765;DHT22;35657;51.204;-4.130;2023-03-01T03:51:01;6.80;99.90
49765;DHT22;35657;51.204;-4.130;2023-03-01T03:53:28;6.80;99.90
49765;DHT22;35657;51.204;-4.130;2023-03-01T03:55:55;6.80;99.90
49765;DHT22;35657;51.204;-4.130;2023-03-01T03:58:23;6.80;99.90
49765;DHT22;35657;51.204;-4.130;2023-03-01T04:00:52;6.80;99.90
49765;DHT22;35657;51.204;-4.130;2023-03-01T04:03:19;6.80;99.90
49765;DHT22;35657;51.204;-4.130;2023-03-01T04:05:46;6.80;99.90
49765;DHT22;35657;51.204;-4.130;2023-03-01T04:08:12;6.80;99.90
49765;DHT22;35657;51.204;-4.130;2023-03-01T04:10:45;6.80;99.90
49765;DHT22;35657;51.204;-4.130;2023-03-01T04:13:16;6.70;99.90
49765;DHT22;35657;51.204;-4.130;2023-03-01T04:15:42;6.70;99.90
49765;DHT22;35657;51.204;-4.130;2023-03-01T04:18:15;6.80;99.90
49765;DHT22;35657;51.204;-4.130;2023-03-01T04:20:41;6.80;99.90
49765;DHT22;35657;51.204;-4.130;2023-03-01T04:23:19;6.80;99.90
49765;DHT22;35657;51.204;-4.130;2023-03-01T04:28:23;6.80;99.90
49765;DHT22;35657;51.204;-4.130;2023-03-01T04:30:50;6.80;99.90
49765;DHT22;35657;51.204;-4.130;2023-03-01T04:33:16;6.80;99.90
49765;DHT22;35657;51.204;-4.130;2023-03-01T04:35:42;6.80;99.90
49765;DHT22;35657;51.204;-4.130;2023-03-01T04:38:08;6.80;99.90
49765;DHT22;35657;51.204;-4.130;2023-03-01T04:40:34;6.80;99.90
49765;DHT22;35657;51.204;-4.130;2023-03-01T04:43:01;6.80;99.90
49765;DHT22;35657;51.204;-4.130;2023-03-01T04:45:27;6.80;99.90
49765;DHT22;35657;51.204;-4.130;2023-03-01T04:47:53;6.80;99.90
49765;DHT22;35657;51.204;-4.130;2023-03-01T04:50:19;6.80;99.90
49765;DHT22;35657;51.204;-4.130;2023-03-01T04:52:49;6.80;99.90
49765;DHT22;35657;51.204;-4.130;2023-03-01T04:55:15;6.80;99.90
49765;DHT22;35657;51.204;-4.130;2023-03-01T04:57:41;6.70;99.90
49765;DHT22;35657;51.204;-4.130;2023-03-01T05:00:09;6.70;99.90
49765;DHT22;35657;51.204;-4.130;2023-03-01T05:05:25;6.70;99.90
49765;DHT22;35657;51.204;-4.130;2023-03-01T05:07:56;6.70;99.90
49765;DHT22;35657;51.204;-4.130;2023-03-01T05:10:23;6.70;99.90
49765;DHT22;35657;51.204;-4.130;2023-03-01T05:12:49;6.70;99.90
49765;DHT22;35657;51.204;-4.130;2023-03-01T05:15:14;6.60;99.90
49765;DHT22;35657;51.204;-4.130;2023-03-01T05:17:40;6.60;99.90
49765;DHT22;35657;51.204;-4.130;2023-03-01T05:20:07;6.60;99.90
49765;DHT22;35657;51.204;-4.130;2023-03-01T05:22:34;6.60;99.90
49765;DHT22;35657;51.204;-4.130;2023-03-01T05:25:00;6.60;99.90
49765;DHT22;35657;51.204;-4.130;2023-03-01T05:27:26;6.60;99.90
49765;DHT22;35657;51.204;-4.130;2023-03-01T05:29:52;6.60;99.90
49765;DHT22;35657;51.204;-4.130;2023-03-01T05:32:18;6.60;99.90
49765;DHT22;35657;51.204;-4.130;2023-03-01T05:34:44;6.60;99.90
49765;DHT22;35657;51.204;-4.130;2023-03-01T05:37:12;6.60;99.90
49765;DHT22;35657;51.204;-4.130;2023-03-01T05:39:38;6.60;99.90
49765;DHT22;35657;51.204;-4.130;2023-03-01T05:42:05;6.50;99.90
49765;DHT22;35657;51.204;-4.130;2023-03-01T05:44:31;6.50;99.90
49765;DHT22;35657;51.204;-4.130;2023-03-01T05:46:56;6.50;99.90
49765;DHT22;35657;51.204;-4.130;2023-03-01T05:49:23;6.50;99.90
49765;DHT22;35657;51.204;-4.130;2023-03-01T05:51:51;6.50;99.90
49765;DHT22;35657;51.204;-4.130;2023-03-01T05:54:18;6.50;99.90
49765;DHT22;35657;51.204;-4.130;2023-03-01T05:56:44;6.60;99.90
49765;DHT22;35657;51.204;-4.130;2023-03-01T05:59:11;6.60;99.90
49765;DHT22;35657;51.204;-4.130;2023-03-01T06:01:37;6.50;99.90
49765;DHT22;35657;51.204;-4.130;2023-03-01T06:04:04;6.50;99.90
49765;DHT22;35657;51.204;-4.130;2023-03-01T06:06:33;6.50;99.90
49765;DHT22;35657;51.204;-4.130;2023-03-01T06:08:59;6.50;99.90
49765;DHT22;35657;51.204;-4.130;2023-03-01T06:11:25;6.50;99.90
49765;DHT22;35657;51.204;-4.130;2023-03-01T06:13:50;6.50;99.90
49765;DHT22;35657;51.204;-4.130;2023-03-01T06:16:16;6.50;99.90
49765;DHT22;35657;51.204;-4.130;2023-03-01T06:18:42;6.50;99.90
49765;DHT22;35657;51.204;-4.130;2023-03-01T06:21:08;6.50;99.90
49765;DHT22;35657;51.204;-4.130;2023-03-01T06:23:35;6.50;99.90
49765;DHT22;35657;51.204;-4.130;2023-03-01T06:26:04;6.40;99.90
49765;DHT22;35657;51.204;-4.130;2023-03-01T06:28:30;6.40;99.90
49765;DHT22;35657;51.204;-4.130;2023-03-01T06:30:56;6.40;99.90
49765;DHT22;35657;51.204;-4.130;2023-03-01T06:33:21;6.40;99.90
49765;DHT22;35657;51.204;-4.130;2023-03-01T06:35:50;6.40;99.90
49765;DHT22;35657;51.204;-4.130;2023-03-01T06:38:15;6.40;99.90
49765;DHT22;35657;51.204;-4.130;2023-03-01T06:40:45;6.40;99.90
49765;DHT22;35657;51.204;-4.130;2023-03-01T06:43:16;6.40;99.90
49765;DHT22;35657;51.204;-4.130;2023-03-01T06:45:42;6.40;99.90
49765;DHT22;35657;51.204;-4.130;2023-03-01T06:48:08;6.30;99.90
49765;DHT22;35657;51.204;-4.130;2023-03-01T06:50:35;6.30;99.90
49765;DHT22;35657;51.204;-4.130;2023-03-01T06:53:01;6.40;99.90
49765;DHT22;35657;51.204;-4.130;2023-03-01T06:55:27;6.40;99.90
49765;DHT22;35657;51.204;-4.130;2023-03-01T06:57:59;6.40;99.90
49765;DHT22;35657;51.204;-4.130;2023-03-01T07:00:27;6.40;99.90
49765;DHT22;35657;51.204;-4.130;2023-03-01T07:02:53;6.40;99.90
49765;DHT22;35657;51.204;-4.130;2023-03-01T07:05:18;6.40;99.90
49765;DHT22;35657;51.204;-4.130;2023-03-01T07:07:44;6.40;99.90
49765;DHT22;35657;51.204;-4.130;2023-03-01T07:10:11;6.40;99.90
49765;DHT22;35657;51.204;-4.130;2023-03-01T07:12:36;6.40;99.90
49765;DHT22;35657;51.204;-4.130;2023-03-01T07:15:03;6.40;99.90
49765;DHT22;35657;51.204;-4.130;2023-03-01T07:17:29;6.40;99.90
49765;DHT22;35657;51.204;-4.130;2023-03-01T07:19:56;6.40;99.90
49765;DHT22;35657;51.204;-4.130;2023-03-01T07:22:22;6.40;99.90
49765;DHT22;35657;51.204;-4.130;2023-03-01T07:24:48;6.40;99.90
49765;DHT22;35657;51.204;-4.130;2023-03-01T07:27:14;6.40;99.90
49765;DHT22;35657;51.204;-4.130;2023-03-01T07:29:39;6.40;99.90
49765;DHT22;35657;51.204;-4.130;2023-03-01T07:32:06;6.40;99.90
49765;DHT22;35657;51.204;-4.130;2023-03-01T07:34:32;6.40;99.90
49765;DHT22;35657;51.204;-4.130;2023-03-01T07:36:58;6.40;99.90
49765;DHT22;35657;51.204;-4.130;2023-03-01T07:39:23;6.40;99.90
49765;DHT22;35657;51.204;-4.130;2023-03-01T07:41:50;6.40;99.90
49765;DHT22;35657;51.204;-4.130;2023-03-01T07:44:15;6.40;99.90
49765;DHT22;35657;51.204;-4.130;2023-03-01T07:46:42;6.40;99.90
49765;DHT22;35657;51.204;-4.130;2023-03-01T07:49:08;6.40;99.90
49765;DHT22;35657;51.204;-4.130;2023-03-01T07:51:34;6.40;99.90
49765;DHT22;35657;51.204;-4.130;2023-03-01T07:54:00;6.40;99.90
49765;DHT22;35657;51.204;-4.130;2023-03-01T07:56:25;6.40;99.90
49765;DHT22;35657;51.204;-4.130;2023-03-01T07:58:51;6.40;99.90
49765;DHT22;35657;51.204;-4.130;2023-03-01T08:01:19;6.40;99.90
49765;DHT22;35657;51.204;-4.130;2023-03-01T08:03:45;6.40;99.90
49765;DHT22;35657;51.204;-4.130;2023-03-01T08:06:13;6.40;99.90
49765;DHT22;35657;51.204;-4.130;2023-03-01T08:08:39;6.40;99.90
49765;DHT22;35657;51.204;-4.130;2023-03-01T08:11:06;6.40;99.90
49765;DHT22;35657;51.204;-4.130;2023-03-01T08:13:33;6.40;99.90
49765;DHT22;35657;51.204;-4.130;2023-03-01T08:16:06;6.50;99.90
49765;DHT22;35657;51.204;-4.130;2023-03-01T08:18:32;6.50;99.90
49765;DHT22;35657;51.204;-4.130;2023-03-01T08:21:10;6.50;99.90
49765;DHT22;35657;51.204;-4.130;2023-03-01T08:23:36;6.50;99.90
49765;DHT22;35657;51.204;-4.130;2023-03-01T08:26:08;6.50;99.90
49765;DHT22;35657;51.204;-4.130;2023-03-01T08:28:34;6.50;99.90
49765;DHT22;35657;51.204;-4.130;2023-03-01T08:31:00;6.50;99.90
49765;DHT22;35657;51.204;-4.130;2023-03-01T08:33:26;6.50;99.90
49765;DHT22;35657;51.204;-4.130;2023-03-01T08:35:52;6.50;99.90
49765;DHT22;35657;51.204;-4.130;2023-03-01T08:38:17;6.50;99.90
49765;DHT22;35657;51.204;-4.130;2023-03-01T08:40:43;6.50;99.90
49765;DHT22;35657;51.204;-4.130;2023-03-01T08:43:09;6.50;99.90
49765;DHT22;35657;51.204;-4.130;2023-03-01T08:45:34;6.50;99.90
49765;DHT22;35657;51.204;-4.130;2023-03-01T08:48:00;6.50;99.90
49765;DHT22;35657;51.204;-4.130;2023-03-01T08:50:26;6.50;99.90
49765;DHT22;35657;51.204;-4.130;2023-03-01T08:52:51;6.50;99.90
49765;DHT22;35657;51.204;-4.130;2023-03-01T08:55:17;6.50;99.90
49765;DHT22;35657;51.204;-4.130;2023-03-01T08:57:43;6.50;99.90
49765;DHT22;35657;51.204;-4.130;2023-03-01T09:00:10;6.50;99.90
49765;DHT22;35657;51.204;-4.130;2023-03-01T09:02:40;6.60;99.90
49765;DHT22;35657;51.204;-4.130;2023-03-01T09:05:06;6.60;99.90
49765;DHT22;35657;51.204;-4.130;2023-03-01T09:07:32;6.60;99.90
49765;DHT22;35657;51.204;-4.130;2023-03-01T09:09:57;6.60;99.90
49765;DHT22;35657;51.204;-4.130;2023-03-01T09:12:23;6.60;99.90
49765;DHT22;35657;51.204;-4.130;2023-03-01T09:14:50;6.60;99.90
49765;DHT22;35657;51.204;-4.130;2023-03-01T09:17:16;6.60;99.90
49765;DHT22;35657;51.204;-4.130;2023-03-01T09:19:42;6.60;99.90
49765;DHT22;35657;51.204;-4.130;2023-03-01T09:22:07;6.60;99.90
49765;DHT22;35657;51.204;-4.130;2023-03-01T09:24:33;6.70;99.90
49765;DHT22;35657;51.204;-4.130;2023-03-01T09:26:59;6.70;99.90
49765;DHT22;35657;51.204;-4.130;2023-03-01T09:29:24;6.70;99.90
49765;DHT22;35657;51.204;-4.130;2023-03-01T09:31:52;6.70;99.90
49765;DHT22;35657;51.204;-4.130;2023-03-01T09:34:21;6.70;99.90
49765;DHT22;35657;51.204;-4.130;2023-03-01T09:36:49;6.70;99.90
49765;DHT22;35657;51.204;-4.130;2023-03-01T09:39:15;6.60;99.90
49765;DHT22;35657;51.204;-4.130;2023-03-01T09:42:04;6.70;99.90
49765;DHT22;35657;51.204;-4.130;2023-03-01T09:44:46;6.70;99.90
49765;DHT22;35657;51.204;-4.130;2023-03-01T09:47:24;6.70;99.90
49765;DHT22;35657;51.204;-4.130;2023-03-01T09:50:14;6.70;99.90
49765;DHT22;35657;51.204;-4.130;2023-03-01T09:53:06;6.80;99.90
49765;DHT22;35657;51.204;-4.130;2023-03-01T09:56:20;6.80;99.90
49765;DHT22;35657;51.204;-4.130;2023-03-01T09:58:53;6.80;99.90
49765;DHT22;35657;51.204;-4.130;2023-03-01T10:01:29;6.80;99.90
49765;DHT22;35657;51.204;-4.130;2023-03-01T10:04:09;6.80;99.90
49765;DHT22;35657;51.204;-4.130;2023-03-01T10:06:39;6.80;99.90
49765;DHT22;35657;51.204;-4.130;2023-03-01T10:09:25;6.80;99.90
49765;DHT22;35657;51.204;-4.130;2023-03-01T10:11:54;6.80;99.90
49765;DHT22;35657;51.204;-4.130;2023-03-01T10:14:40;6.80;99.90
49765;DHT22;35657;51.204;-4.130;2023-03-01T10:20:17;6.80;99.90
49765;DHT22;35657;51.204;-4.130;2023-03-01T10:22:43;6.80;99.90
49765;DHT22;35657;51.204;-4.130;2023-03-01T10:25:14;6.80;99.90
49765;DHT22;35657;51.204;-4.130;2023-03-01T10:30:32;6.80;99.90
49765;DHT22;35657;51.204;-4.130;2023-03-01T10:33:00;6.80;99.90
49765;DHT22;35657;51.204;-4.130;2023-03-01T10:35:29;6.80;99.90
49765;DHT22;35657;51.204;-4.130;2023-03-01T10:38:09;6.80;99.90
49765;DHT22;35657;51.204;-4.130;2023-03-01T10:40:41;6.80;99.90
49765;DHT22;35657;51.204;-4.130;2023-03-01T10:43:15;6.90;99.90
49765;DHT22;35657;51.204;-4.130;2023-03-01T10:45:40;6.90;99.90
49765;DHT22;35657;51.204;-4.130;2023-03-01T10:50:35;6.90;99.90
49765;DHT22;35657;51.204;-4.130;2023-03-01T10:53:04;6.90;99.90
49765;DHT22;35657;51.204;-4.130;2023-03-01T10:55:35;6.90;99.90
49765;DHT22;35657;51.204;-4.130;2023-03-01T10:58:19;6.80;99.90
49765;DHT22;35657;51.204;-4.130;2023-03-01T11:00:51;6.80;99.90
49765;DHT22;35657;51.204;-4.130;2023-03-01T11:03:42;6.80;99.90
49765;DHT22;35657;51.204;-4.130;2023-03-01T11:08:43;6.80;99.90
49765;DHT22;35657;51.204;-4.130;2023-03-01T11:11:23;6.80;99.90
49765;DHT22;35657;51.204;-4.130;2023-03-01T11:13:54;6.80;99.90
49765;DHT22;35657;51.204;-4.130;2023-03-01T11:16:37;6.80;99.90
49765;DHT22;35657;51.204;-4.130;2023-03-01T11:24:12;7.00;99.90
49765;DHT22;35657;51.204;-4.130;2023-03-01T11:26:46;7.00;99.90
49765;DHT22;35657;51.204;-4.130;2023-03-01T11:29:21;7.00;99.90
49765;DHT22;35657;51.204;-4.130;2023-03-01T11:31:51;7.00;99.90
49765;DHT22;35657;51.204;-4.130;2023-03-01T11:34:42;7.00;99.90
49765;DHT22;35657;51.204;-4.130;2023-03-01T11:37:36;7.10;99.90
49765;DHT22;35657;51.204;-4.130;2023-03-01T11:40:16;7.00;99.90
49765;DHT22;35657;51.204;-4.130;2023-03-01T11:43:00;7.00;99.90
49765;DHT22;35657;51.204;-4.130;2023-03-01T11:45:41;7.10;99.90
49765;DHT22;35657;51.204;-4.130;2023-03-01T11:50:58;7.10;99.90
49765;DHT22;35657;51.204;-4.130;2023-03-01T11:53:56;7.10;99.90
49765;DHT22;35657;51.204;-4.130;2023-03-01T12:01:48;7.10;99.90
49765;DHT22;35657;51.204;-4.130;2023-03-01T12:10:27;7.20;99.90
49765;DHT22;35657;51.204;-4.130;2023-03-01T12:12:58;7.20;99.90
49765;DHT22;35657;51.204;-4.130;2023-03-01T12:26:35;7.40;99.90
49765;DHT22;35657;51.204;-4.130;2023-03-01T12:29:16;7.40;99.90
49765;DHT22;35657;51.204;-4.130;2023-03-01T12:34:41;7.50;99.90
49765;DHT22;35657;51.204;-4.130;2023-03-01T12:51:08;7.70;99.90
49765;DHT22;35657;51.204;-4.130;2023-03-01T12:56:09;7.70;99.90
49765;DHT22;35657;51.204;-4.130;2023-03-01T13:01:53;7.70;99.90
49765;DHT22;35657;51.204;-4.130;2023-03-01T13:12:03;7.80;99.90
49765;DHT22;35657;51.204;-4.130;2023-03-01T13:16:57;7.70;99.90
49765;DHT22;35657;51.204;-4.130;2023-03-01T13:19:27;7.70;99.90
49765;DHT22;35657;51.204;-4.130;2023-03-01T13:21:58;7.70;99.90
49765;DHT22;35657;51.204;-4.130;2023-03-01T13:24:40;7.80;99.90
49765;DHT22;35657;51.204;-4.130;2023-03-01T13:29:48;7.80;99.90
49765;DHT22;35657;51.204;-4.130;2023-03-01T13:32:23;7.80;99.90
49765;DHT22;35657;51.204;-4.130;2023-03-01T13:37:36;7.70;99.90
49765;DHT22;35657;51.204;-4.130;2023-03-01T13:42:53;7.70;99.90
49765;DHT22;35657;51.204;-4.130;2023-03-01T13:45:46;7.80;99.90
49765;DHT22;35657;51.204;-4.130;2023-03-01T13:48:26;7.80;99.90
49765;DHT22;35657;51.204;-4.130;2023-03-01T13:51:00;7.80;99.90
49765;DHT22;35657;51.204;-4.130;2023-03-01T13:53:31;7.80;99.90
49765;DHT22;35657;51.204;-4.130;2023-03-01T13:56:08;7.90;99.90
49765;DHT22;35657;51.204;-4.130;2023-03-01T13:59:03;7.90;99.90
49765;DHT22;35657;51.204;-4.130;2023-03-01T14:01:32;7.90;99.90
49765;DHT22;35657;51.204;-4.130;2023-03-01T14:03:58;7.90;99.90
49765;DHT22;35657;51.204;-4.130;2023-03-01T14:06:28;7.90;99.90
49765;DHT22;35657;51.204;-4.130;2023-03-01T14:09:25;7.90;99.90
49765;DHT22;35657;51.204;-4.130;2023-03-01T14:14:42;7.90;99.90
49765;DHT22;35657;51.204;-4.130;2023-03-01T14:19:37;8.00;99.90
49765;DHT22;35657;51.204;-4.130;2023-03-01T14:24:43;8.10;99.90
49765;DHT22;35657;51.204;-4.130;2023-03-01T14:27:11;8.10;99.90
49765;DHT22;35657;51.204;-4.130;2023-03-01T14:29:40;8.10;99.90
49765;DHT22;35657;51.204;-4.130;2023-03-01T14:34:35;8.10;99.90
49765;DHT22;35657;51.204;-4.130;2023-03-01T14:37:32;8.00;99.90
49765;DHT22;35657;51.204;-4.130;2023-03-01T14:40:01;8.00;99.90
49765;DHT22;35657;51.204;-4.130;2023-03-01T14:42:31;8.00;99.90
49765;DHT22;35657;51.204;-4.130;2023-03-01T14:45:00;8.00;99.90
49765;DHT22;35657;51.204;-4.130;2023-03-01T14:47:32;8.10;99.90
49765;DHT22;35657;51.204;-4.130;2023-03-01T14:50:19;8.10;99.90
49765;DHT22;35657;51.204;-4.130;2023-03-01T14:52:48;8.10;99.90
49765;DHT22;35657;51.204;-4.130;2023-03-01T14:55:35;8.10;99.90
49765;DHT22;35657;51.204;-4.130;2023-03-01T14:58:09;8.10;99.90
49765;DHT22;35657;51.204;-4.130;2023-03-01T15:00:37;8.10;99.90
49765;DHT22;35657;51.204;-4.130;2023-03-01T15:03:15;8.00;99.90
49765;DHT22;35657;51.204;-4.130;2023-03-01T15:05:43;8.00;99.90
49765;DHT22;35657;51.204;-4.130;2023-03-01T15:08:25;8.00;99.90
49765;DHT22;35657;51.204;-4.130;2023-03-01T15:11:01;8.10;99.90
49765;DHT22;35657;51.204;-4.130;2023-03-01T15:13:31;8.10;99.90
49765;DHT22;35657;51.204;-4.130;2023-03-01T15:16:04;8.10;99.90
49765;DHT22;35657;51.204;-4.130;2023-03-01T15:18:31;8.10;99.90
49765;DHT22;35657;51.204;-4.130;2023-03-01T15:21:06;8.10;99.90
49765;DHT22;35657;51.204;-4.130;2023-03-01T15:23:32;8.10;99.90
49765;DHT22;35657;51.204;-4.130;2023-03-01T15:25:59;8.20;99.90
49765;DHT22;35657;51.204;-4.130;2023-03-01T15:28:31;8.10;99.90
49765;DHT22;35657;51.204;-4.130;2023-03-01T15:31:06;8.10;99.90
49765;DHT22;35657;51.204;-4.130;2023-03-01T15:33:38;8.00;99.90
49765;DHT22;35657;51.204;-4.130;2023-03-01T15:39:00;8.00;99.90
49765;DHT22;35657;51.204;-4.130;2023-03-01T15:41:32;8.00;99.90
49765;DHT22;35657;51.204;-4.130;2023-03-01T15:44:18;8.00;99.90
49765;DHT22;35657;51.204;-4.130;2023-03-01T15:46:50;8.00;99.90
49765;DHT22;35657;51.204;-4.130;2023-03-01T15:52:02;8.10;99.90
49765;DHT22;35657;51.204;-4.130;2023-03-01T15:54:28;8.10;99.90
49765;DHT22;35657;51.204;-4.130;2023-03-01T15:56:55;8.10;99.90
49765;DHT22;35657;51.204;-4.130;2023-03-01T15:59:21;8.10;99.90
49765;DHT22;35657;51.204;-4.130;2023-03-01T16:01:48;8.10;99.90
49765;DHT22;35657;51.204;-4.130;2023-03-01T16:04:16;8.10;99.90
49765;DHT22;35657;51.204;-4.130;2023-03-01T16:06:52;8.10;99.90
49765;DHT22;35657;51.204;-4.130;2023-03-01T16:09:23;8.10;99.90
49765;DHT22;35657;51.204;-4.130;2023-03-01T16:11:49;8.10;99.90
49765;DHT22;35657;51.204;-4.130;2023-03-01T16:14:15;8.00;99.90
49765;DHT22;35657;51.204;-4.130;2023-03-01T16:16:42;8.10;99.90
49765;DHT22;35657;51.204;-4.130;2023-03-01T16:19:07;8.10;99.90
49765;DHT22;35657;51.204;-4.130;2023-03-01T16:21:33;8.10;99.90
49765;DHT22;35657;51.204;-4.130;2023-03-01T16:23:59;8.00;99.90
49765;DHT22;35657;51.204;-4.130;2023-03-01T16:26:24;8.00;99.90
49765;DHT22;35657;51.204;-4.130;2023-03-01T16:28:53;8.00;99.90
49765;DHT22;35657;51.204;-4.130;2023-03-01T16:31:19;8.00;99.90
49765;DHT22;35657;51.204;-4.130;2023-03-01T16:33:45;8.00;99.90
49765;DHT22;35657;51.204;-4.130;2023-03-01T16:36:17;8.10;99.90
49765;DHT22;35657;51.204;-4.130;2023-03-01T16:38:43;8.20;99.90
49765;DHT22;35657;51.204;-4.130;2023-03-01T16:41:14;8.40;99.90
49765;DHT22;35657;51.204;-4.130;2023-03-01T16:43:40;8.30;99.90
49765;DHT22;35657;51.204;-4.130;2023-03-01T16:46:11;8.30;99.90
49765;DHT22;35657;51.204;-4.130;2023-03-01T16:48:37;8.20;99.90
49765;DHT22;35657;51.204;-4.130;2023-03-01T16:51:04;8.20;99.90
49765;DHT22;35657;51.204;-4.130;2023-03-01T16:53:30;8.30;99.90
49765;DHT22;35657;51.204;-4.130;2023-03-01T16:55:58;8.20;99.90
49765;DHT22;35657;51.204;-4.130;2023-03-01T16:58:24;8.20;99.90
49765;DHT22;35657;51.204;-4.130;2023-03-01T17:00:53;8.20;99.90
49765;DHT22;35657;51.204;-4.130;2023-03-01T17:03:24;8.10;99.90
49765;DHT22;35657;51.204;-4.130;2023-03-01T17:05:51;8.10;99.90
49765;DHT22;35657;51.204;-4.130;2023-03-01T17:08:17;8.10;99.90
49765;DHT22;35657;51.204;-4.130;2023-03-01T17:10:42;8.10;99.90
49765;DHT22;35657;51.204;-4.130;2023-03-01T17:13:09;8.00;99.90
49765;DHT22;35657;51.204;-4.130;2023-03-01T17:15:39;8.00;99.90
49765;DHT22;35657;51.204;-4.130;2023-03-01T17:18:06;8.10;99.90
49765;DHT22;35657;51.204;-4.130;2023-03-01T17:20:31;8.10;99.90
49765;DHT22;35657;51.204;-4.130;2023-03-01T17:22:57;8.10;99.90
49765;DHT22;35657;51.204;-4.130;2023-03-01T17:25:23;8.00;99.90
49765;DHT22;35657;51.204;-4.130;2023-03-01T17:27:49;8.10;99.90
49765;DHT22;35657;51.204;-4.130;2023-03-01T17:30:15;8.00;99.90
49765;DHT22;35657;51.204;-4.130;2023-03-01T17:32:41;8.10;99.90
49765;DHT22;35657;51.204;-4.130;2023-03-01T17:35:07;8.10;99.90
49765;DHT22;35657;51.204;-4.130;2023-03-01T17:37:33;8.10;99.90